Time;durP1;ratioP1;P1;durP2;ratioP2;P2;SDS_P1;SDS_P2;PMS_P1;PMS_P2;Temp;Humidity;BMP_temperature;BMP_pressure;BME280_temperature;BME280_humidity;BME280_pressure;Samples;Min_cycle;Max_cycle;Signal;HPM_P1;HPM_P2
2022/11/11 00:01:53;;;;;;;;;;;;;;;7.58;77.19;100877.88;5088867;28;20309;-82
2022/11/11 00:04:18;;;;;;;;;;;;;;;7.83;76.15;100870.38;5088779;28;20435;-83
2022/11/11 00:06:45;;;;;;;;;;;;;;;7.60;77.68;100872.66;5089108;28;19928;-82
2022/11/11 00:09:10;;;;;;;;;;;;;;;7.91;77.38;100870.50;5089115;28;19916;-82
2022/11/11 00:11:36;;;;;;;;;;;;;;;8.10;76.75;100875.16;5088751;28;19934;-82
2022/11/11 00:14:01;;;;;;;;;;;;;;;8.02;76.75;100869.78;5088725;28;20302;-82
2022/11/11 00:25:04;;;;;;;;;;;;;;;7.99;75.96;100875.00;5088823;28;20429;-81
2022/11/11 00:27:23;;;;;;;;;;;;;;;8.07;73.18;100869.88;5087826;28;19927;-80
2022/11/11 00:29:48;;;;;;;;;;;;;;;8.05;73.10;100872.47;5088573;28;19923;-83
2022/11/11 00:32:23;;;;;;;;;;;;;;;8.04;72.33;100861.94;5088325;28;19912;-82
2022/11/11 00:37:36;;;;;;;;;;;;;;;8.02;71.78;100871.56;5087826;28;19938;-82
2022/11/11 00:40:02;;;;;;;;;;;;;;;7.94;71.28;100862.66;5088382;28;20444;-81
2022/11/11 00:42:28;;;;;;;;;;;;;;;7.84;71.22;100873.03;5088497;28;19977;-82
2022/11/11 00:44:53;;;;;;;;;;;;;;;7.73;70.36;100864.13;5088159;28;19916;-83
2022/11/11 00:52:52;;;;;;;;;;;;;;;7.73;71.02;100865.88;5088101;28;20470;-82
2022/11/11 00:55:17;;;;;;;;;;;;;;;7.46;74.31;100861.91;5088069;28;20014;-81
2022/11/11 00:57:42;;;;;;;;;;;;;;;7.30;76.96;100864.28;5086934;28;19916;-81
2022/11/11 01:00:08;;;;;;;;;;;;;;;7.37;77.49;100860.06;5089241;28;20301;-81
2022/11/11 01:02:33;;;;;;;;;;;;;;;7.58;77.12;100869.13;5089114;28;19923;-82
2022/11/11 01:04:58;;;;;;;;;;;;;;;7.73;75.58;100861.50;5088091;28;20696;-82
2022/11/11 01:07:24;;;;;;;;;;;;;;;7.62;74.81;100863.06;5088042;28;19912;-82
2022/11/11 01:09:50;;;;;;;;;;;;;;;7.80;74.30;100851.94;5087679;28;19916;-82
2022/11/11 01:12:16;;;;;;;;;;;;;;;7.73;73.73;100858.88;5086663;28;20397;-82
2022/11/11 01:14:41;;;;;;;;;;;;;;;7.50;73.07;100853.25;5087828;28;20012;-82
2022/11/11 01:17:08;;;;;;;;;;;;;;;7.50;73.19;100853.25;5086620;28;19941;-82
2022/11/11 01:19:33;;;;;;;;;;;;;;;7.54;72.96;100855.06;5088000;28;19916;-83
2022/11/11 01:21:59;;;;;;;;;;;;;;;7.49;72.66;100849.75;5086917;28;19920;-82
2022/11/11 01:24:24;;;;;;;;;;;;;;;7.60;72.39;100849.91;5087232;28;20297;-82
2022/11/11 01:26:49;;;;;;;;;;;;;;;7.62;71.98;100839.44;5087358;28;20072;-82
2022/11/11 01:29:15;;;;;;;;;;;;;;;7.48;71.36;100840.09;5088037;28;20374;-82
2022/11/11 01:31:40;;;;;;;;;;;;;;;7.45;71.08;100849.69;5087699;28;19954;-81
2022/11/11 01:34:05;;;;;;;;;;;;;;;7.35;71.25;100843.38;5087216;28;20320;-83
2022/11/11 01:36:31;;;;;;;;;;;;;;;7.27;70.66;100845.88;5087479;28;20375;-83
2022/11/11 01:38:58;;;;;;;;;;;;;;;7.30;71.18;100834.53;5086963;28;19919;-83
2022/11/11 01:41:35;;;;;;;;;;;;;;;7.42;70.96;100836.50;5087484;28;19920;-84
2022/11/11 01:44:01;;;;;;;;;;;;;;;7.35;70.28;100833.78;5087865;28;19919;-81
2022/11/11 01:46:33;;;;;;;;;;;;;;;7.13;70.57;100823.75;5086866;28;19923;-81
2022/11/11 01:49:20;;;;;;;;;;;;;;;7.16;70.98;100829.94;5087235;28;19916;-82
2022/11/11 01:51:45;;;;;;;;;;;;;;;7.04;71.28;100826.22;5086883;28;19920;-82
2022/11/11 01:54:17;;;;;;;;;;;;;;;7.07;72.36;100827.16;5087353;28;20002;-82
2022/11/11 01:56:45;;;;;;;;;;;;;;;7.09;72.82;100825.47;5085780;28;20366;-81
2022/11/11 01:59:13;;;;;;;;;;;;;;;7.02;73.62;100830.56;5087497;28;19922;-81
2022/11/11 02:01:38;;;;;;;;;;;;;;;7.09;72.94;100825.47;5087134;28;19920;-81
2022/11/11 02:06:51;;;;;;;;;;;;;;;6.72;74.18;100832.66;5086872;28;19935;-81
2022/11/11 02:09:18;;;;;;;;;;;;;;;6.78;74.00;100829.25;5087358;28;19962;-81
2022/11/11 02:14:38;;;;;;;;;;;;;;;6.80;75.53;100840.69;5087089;28;20322;-81
2022/11/11 02:17:07;;;;;;;;;;;;;;;6.85;75.15;100840.75;5087136;28;19950;-81
2022/11/11 02:20:00;;;;;;;;;;;;;;;6.96;74.46;100829.59;5087240;28;19993;-81
2022/11/11 02:22:34;;;;;;;;;;;;;;;7.00;73.99;100830.56;5084741;28;19930;-81
2022/11/11 02:25:02;;;;;;;;;;;;;;;6.93;74.16;100847.03;5090227;28;19916;-81
2022/11/11 02:27:29;;;;;;;;;;;;;;;6.83;74.77;100848.59;5090906;28;20397;-84
2022/11/11 02:29:55;;;;;;;;;;;;;;;7.02;75.91;100852.44;5091461;28;20340;-82
2022/11/11 02:32:20;;;;;;;;;;;;;;;6.44;78.30;100854.81;5091100;28;20028;-81
2022/11/11 02:34:46;;;;;;;;;;;;;;;6.58;77.46;100862.97;5090745;28;20027;-81
2022/11/11 02:37:13;;;;;;;;;;;;;;;6.78;76.63;100863.34;5089659;28;19920;-81
2022/11/11 02:39:44;;;;;;;;;;;;;;;6.75;76.69;100858.03;5090738;28;20359;-80
2022/11/11 02:42:12;;;;;;;;;;;;;;;6.90;76.21;100863.59;5091120;28;20014;-81
2022/11/11 02:44:37;;;;;;;;;;;;;;;6.87;75.81;100865.28;5090631;28;19920;-81
2022/11/11 02:47:03;;;;;;;;;;;;;;;6.87;75.75;100860.03;5090734;28;20419;-81
2022/11/11 02:49:29;;;;;;;;;;;;;;;6.85;76.14;100864.38;5090687;28;19912;-84
2022/11/11 02:51:54;;;;;;;;;;;;;;;6.77;76.47;100862.47;5090271;28;20471;-82
2022/11/11 02:54:19;;;;;;;;;;;;;;;6.77;76.09;100866.84;5090099;28;19922;-81
2022/11/11 02:59:28;;;;;;;;;;;;;;;6.81;74.67;100852.91;5091005;28;19949;-82
2022/11/11 03:01:53;;;;;;;;;;;;;;;6.83;74.18;100859.09;5081290;28;19915;-81
2022/11/11 03:04:19;;;;;;;;;;;;;;;6.92;72.99;100847.88;5090258;28;20311;-83
2022/11/11 03:06:44;;;;;;;;;;;;;;;6.66;73.49;100855.25;5081546;28;19915;-82
2022/11/11 03:09:09;;;;;;;;;;;;;;;6.44;72.95;100853.09;5089980;28;19923;-82
2022/11/11 03:11:37;;;;;;;;;;;;;;;6.44;73.38;100860.06;5090131;28;19962;-82
2022/11/11 03:14:03;;;;;;;;;;;;;;;6.29;73.18;100865.88;5073129;28;19916;-80
2022/11/11 03:19:12;;;;;;;;;;;;;;;6.26;72.62;100865.81;5089868;28;19919;-81
2022/11/11 03:21:37;;;;;;;;;;;;;;;6.08;73.30;100869.78;5090015;28;19920;-81
2022/11/11 03:24:02;;;;;;;;;;;;;;;6.03;73.87;100874.06;5090275;28;20016;-81
2022/11/11 03:26:27;;;;;;;;;;;;;;;5.90;73.99;100872.88;5090138;28;20397;-80
2022/11/11 03:28:53;;;;;;;;;;;;;;;6.13;73.62;100863.78;5089417;28;19920;-81
2022/11/11 03:31:18;;;;;;;;;;;;;;;6.34;72.54;100863.38;5089912;28;19919;-81
2022/11/11 03:33:44;;;;;;;;;;;;;;;5.99;73.72;100860.84;5088866;28;20282;-81
2022/11/11 03:36:09;;;;;;;;;;;;;;;6.00;73.49;100855.66;5088831;28;19916;-81
2022/11/11 03:38:34;;;;;;;;;;;;;;;5.97;74.05;100859.94;5089615;28;19927;-80
2022/11/11 03:40:59;;;;;;;;;;;;;;;5.95;73.92;100865.13;5090152;28;19928;-82
2022/11/11 03:43:29;;;;;;;;;;;;;;;6.00;73.93;100860.88;5089810;28;20364;-82
2022/11/11 03:45:55;;;;;;;;;;;;;;;5.98;74.16;100857.38;5089775;28;19912;-81
2022/11/11 03:48:21;;;;;;;;;;;;;;;5.82;75.07;100863.06;5088923;28;19958;-82
2022/11/11 03:50:47;;;;;;;;;;;;;;;5.74;76.42;100866.38;5089100;28;19951;-82
2022/11/11 03:53:13;;;;;;;;;;;;;;;5.71;76.89;100855.84;5089283;28;19912;-81
2022/11/11 03:55:39;;;;;;;;;;;;;;;5.84;76.29;100854.41;5089393;28;19920;-81
2022/11/11 03:58:04;;;;;;;;;;;;;;;5.91;76.45;100856.28;5088879;28;19999;-82
2022/11/11 04:00:29;;;;;;;;;;;;;;;5.88;76.46;100844.88;5087883;28;20307;-82
2022/11/11 04:11:23;;;;;;;;;;;;;;;5.99;75.51;100853.00;5088743;28;20457;-82
2022/11/11 04:16:33;;;;;;;;;;;;;;;5.88;77.05;100850.97;5077438;28;19973;-83
2022/11/11 04:21:42;;;;;;;;;;;;;;;6.07;76.60;100860.19;5073125;28;19923;-81
2022/11/11 04:26:53;;;;;;;;;;;;;;;5.84;77.60;100862.25;5073652;28;20050;-83
2022/11/11 04:29:27;;;;;;;;;;;;;;;5.64;78.02;100866.13;5088289;28;19934;-82
2022/11/11 04:34:37;;;;;;;;;;;;;;;5.96;78.27;100866.00;5067975;28;19978;-84
2022/11/11 04:37:02;;;;;;;;;;;;;;;6.07;78.10;100878.53;5067889;28;19912;-83
2022/11/11 04:42:11;;;;;;;;;;;;;;;6.18;78.00;100878.75;5067799;28;19939;-84
2022/11/11 04:47:20;;;;;;;;;;;;;;;6.35;76.75;100878.22;5082171;28;20563;-83
2022/11/11 04:49:45;;;;;;;;;;;;;;;6.42;76.51;100883.63;5069116;28;19968;-83
2022/11/11 04:52:26;;;;;;;;;;;;;;;6.34;76.78;100884.34;5069126;28;19927;-86
2022/11/11 04:57:40;;;;;;;;;;;;;;;6.24;76.56;100878.91;5074202;28;19935;-85
2022/11/11 05:00:08;;;;;;;;;;;;;;;6.28;76.09;100882.44;5077674;28;19908;-81
2022/11/11 05:05:17;;;;;;;;;;;;;;;6.28;75.64;100885.94;5083756;28;19923;-82
2022/11/11 05:10:27;;;;;;;;;;;;;;;6.25;74.88;100895.50;5084369;28;19985;-83
2022/11/11 05:12:52;;;;;;;;;;;;;;;6.11;75.15;100889.94;5074708;28;19917;-83
2022/11/11 05:26:16;;;;;;;;;;;;;;;5.80;76.23;100896.19;5070573;28;19918;-83
2022/11/11 05:28:41;;;;;;;;;;;;;;;5.85;76.33;100899.78;5080506;28;19920;-87
2022/11/11 05:31:07;;;;;;;;;;;;;;;6.04;75.50;100908.97;5081011;28;19919;-88
2022/11/11 05:33:32;;;;;;;;;;;;;;;6.07;75.93;100902.09;5077608;28;19916;-89
2022/11/11 05:35:57;;;;;;;;;;;;;;;6.22;75.70;100911.16;5081176;28;19927;-86
2022/11/11 05:38:23;;;;;;;;;;;;;;;6.31;75.37;100903.47;5072989;28;19916;-86
2022/11/11 05:40:48;;;;;;;;;;;;;;;6.37;75.32;100908.00;5075978;28;19990;-84
2022/11/11 05:43:13;;;;;;;;;;;;;;;6.43;75.44;100909.00;5081998;28;19973;-84
2022/11/11 05:45:40;;;;;;;;;;;;;;;6.47;75.41;100907.31;5078273;28;19912;-86
2022/11/11 05:48:05;;;;;;;;;;;;;;;6.53;75.84;100914.44;5069946;28;20010;-86
2022/11/11 05:50:30;;;;;;;;;;;;;;;6.47;76.05;100909.06;5073274;28;20019;-87
2022/11/11 05:52:56;;;;;;;;;;;;;;;6.59;74.82;100918.06;5067013;28;20304;-86
2022/11/11 05:55:21;;;;;;;;;;;;;;;6.27;74.71;100915.66;5075221;28;20022;-86
2022/11/11 05:57:47;;;;;;;;;;;;;;;6.19;74.71;100926.78;5085293;28;19920;-85
2022/11/11 06:00:12;;;;;;;;;;;;;;;6.13;74.84;100917.06;5089648;28;19927;-85
2022/11/11 06:02:38;;;;;;;;;;;;;;;6.23;74.77;100915.53;5084129;28;20104;-84
2022/11/11 06:05:03;;;;;;;;;;;;;;;6.39;74.92;100919.38;5079136;28;19970;-84
2022/11/11 06:07:30;;;;;;;;;;;;;;;6.43;75.41;100918.59;5083441;28;19920;-84
2022/11/11 06:10:29;;;;;;;;;;;;;;;6.72;75.28;100926.16;5076315;28;19912;-84
2022/11/11 06:13:00;;;;;;;;;;;;;;;6.87;75.23;100928.22;5086200;28;19959;-84
2022/11/11 06:15:26;;;;;;;;;;;;;;;7.02;75.93;100925.91;5083226;28;19923;-85
2022/11/11 06:17:51;;;;;;;;;;;;;;;7.17;75.65;100931.44;5078570;28;19915;-83
2022/11/11 06:20:17;;;;;;;;;;;;;;;7.31;75.93;100931.69;5088840;28;19916;-84
2022/11/11 06:22:57;;;;;;;;;;;;;;;7.49;75.41;100932.88;5091370;28;19924;-83
2022/11/11 06:28:07;;;;;;;;;;;;;;;7.84;74.76;100940.47;5091350;28;19939;-83
2022/11/11 06:30:32;;;;;;;;;;;;;;;8.06;75.41;100934.69;5089110;28;19920;-82
2022/11/11 06:32:57;;;;;;;;;;;;;;;8.26;74.64;100920.94;5090089;28;20979;-83
2022/11/11 06:35:23;;;;;;;;;;;;;;;8.30;76.22;100940.28;5091007;28;19916;-83
2022/11/11 06:37:48;;;;;;;;;;;;;;;8.58;74.97;100942.44;5089311;28;19920;-84
2022/11/11 06:40:14;;;;;;;;;;;;;;;8.72;75.46;100937.34;5079052;28;20704;-84
2022/11/11 06:42:39;;;;;;;;;;;;;;;9.20;74.15;100947.56;5089771;28;19962;-85
2022/11/11 06:45:04;;;;;;;;;;;;;;;9.24;75.13;100952.88;5090004;28;19955;-82
2022/11/11 06:47:30;;;;;;;;;;;;;;;9.50;73.83;100960.16;5089407;28;20006;-83
2022/11/11 06:49:55;;;;;;;;;;;;;;;9.87;72.43;100952.56;5089754;28;19967;-83
2022/11/11 06:52:20;;;;;;;;;;;;;;;9.98;71.98;100953.53;5090635;28;19916;-83
2022/11/11 06:54:45;;;;;;;;;;;;;;;9.84;72.56;100949.91;5090825;28;20305;-82
2022/11/11 06:57:11;;;;;;;;;;;;;;;10.03;71.54;100949.16;5090508;28;19922;-85
2022/11/11 06:59:36;;;;;;;;;;;;;;;10.31;70.63;100946.72;5090184;28;19920;-84
2022/11/11 07:02:01;;;;;;;;;;;;;;;10.36;70.23;100947.69;5090307;28;20373;-85
2022/11/11 07:04:27;;;;;;;;;;;;;;;10.56;70.55;100957.44;5089595;28;19924;-85
2022/11/11 07:06:52;;;;;;;;;;;;;;;10.78;68.96;100950.50;5089530;28;19920;-83
2022/11/11 07:09:17;;;;;;;;;;;;;;;11.00;68.97;100956.75;5089103;28;20354;-85
2022/11/11 07:11:42;;;;;;;;;;;;;;;11.30;67.36;100952.44;5083275;28;20007;-84
2022/11/11 07:14:08;;;;;;;;;;;;;;;11.55;66.61;100952.47;5089379;28;19924;-83
2022/11/11 07:16:33;;;;;;;;;;;;;;;11.64;67.60;100940.13;5087720;28;19938;-84
2022/11/11 07:18:58;;;;;;;;;;;;;;;11.70;65.57;100941.91;5089208;28;19920;-82
2022/11/11 07:21:23;;;;;;;;;;;;;;;11.86;65.49;100941.91;5089402;28;19915;-83
2022/11/11 07:23:49;;;;;;;;;;;;;;;12.03;65.03;100944.56;5089443;28;20063;-82
2022/11/11 07:26:14;;;;;;;;;;;;;;;12.16;65.21;100944.56;5090043;28;19916;-83
2022/11/11 07:28:39;;;;;;;;;;;;;;;12.26;65.35;100940.13;5087767;28;20403;-84
2022/11/11 07:31:05;;;;;;;;;;;;;;;12.38;64.66;100948.94;5088875;28;19918;-84
2022/11/11 07:33:30;;;;;;;;;;;;;;;12.54;63.79;100938.28;5089690;28;19919;-84
2022/11/11 07:35:55;;;;;;;;;;;;;;;12.71;61.88;100927.66;5088860;28;20007;-83
2022/11/11 07:38:21;;;;;;;;;;;;;;;12.74;64.20;100934.66;5089359;28;20010;-84
2022/11/11 07:40:46;;;;;;;;;;;;;;;12.96;63.83;100922.22;5089486;28;19952;-84
2022/11/11 07:43:11;;;;;;;;;;;;;;;13.08;61.85;100921.25;5088837;28;19923;-83
2022/11/11 07:45:36;;;;;;;;;;;;;;;13.35;62.17;100922.91;5088965;28;19951;-84
2022/11/11 07:48:02;;;;;;;;;;;;;;;13.68;61.30;100926.19;5089108;28;20312;-83
2022/11/11 07:50:27;;;;;;;;;;;;;;;13.79;60.64;100939.34;5089496;28;19924;-83
2022/11/11 07:52:52;;;;;;;;;;;;;;;13.72;60.96;100942.97;5089804;28;20381;-83
2022/11/11 07:55:18;;;;;;;;;;;;;;;13.78;62.23;100946.44;5089698;28;19916;-83
2022/11/11 07:57:43;;;;;;;;;;;;;;;13.95;60.57;100941.00;5089234;28;19916;-84
2022/11/11 08:00:09;;;;;;;;;;;;;;;14.16;59.62;100928.41;5089328;28;20006;-83
2022/11/11 08:02:34;;;;;;;;;;;;;;;14.43;59.80;100935.19;5088991;28;19908;-83
2022/11/11 08:04:59;;;;;;;;;;;;;;;14.02;60.33;100943.59;5089355;28;19919;-83
2022/11/11 08:07:25;;;;;;;;;;;;;;;13.97;61.53;100939.19;5089209;28;19912;-83
2022/11/11 08:09:50;;;;;;;;;;;;;;;14.00;61.35;100932.97;5089196;28;19923;-83
2022/11/11 08:15:10;;;;;;;;;;;;;;;14.48;60.37;100935.16;5085769;28;19916;-84
2022/11/11 08:17:38;;;;;;;;;;;;;;;14.47;61.00;100936.03;5088020;28;19916;-84
2022/11/11 08:20:04;;;;;;;;;;;;;;;14.58;59.66;100936.81;5088562;28;19920;-83
2022/11/11 08:22:34;;;;;;;;;;;;;;;14.69;60.04;100931.41;5087333;28;19969;-85
2022/11/11 08:24:59;;;;;;;;;;;;;;;14.80;60.08;100936.59;5088479;28;19919;-84
2022/11/11 08:27:25;;;;;;;;;;;;;;;14.99;59.60;100940.72;5087812;28;19920;-84
2022/11/11 08:29:50;;;;;;;;;;;;;;;14.81;61.89;100938.31;5088361;28;20290;-83
2022/11/11 08:32:15;;;;;;;;;;;;;;;14.98;62.55;100938.09;5087950;28;19919;-82
2022/11/11 08:34:41;;;;;;;;;;;;;;;15.29;61.53;100927.94;5088259;28;20014;-83
2022/11/11 08:37:06;;;;;;;;;;;;;;;15.49;60.66;100934.72;5087909;28;19976;-83
2022/11/11 08:39:31;;;;;;;;;;;;;;;15.76;60.15;100936.06;5088377;28;19931;-83
2022/11/11 08:41:57;;;;;;;;;;;;;;;15.93;59.88;100935.81;5088485;28;19919;-84
2022/11/11 08:44:22;;;;;;;;;;;;;;;15.98;59.19;100941.03;5088084;28;19916;-83
2022/11/11 08:46:47;;;;;;;;;;;;;;;15.86;58.64;100944.78;5089060;28;20370;-83
2022/11/11 08:49:13;;;;;;;;;;;;;;;15.86;59.42;100948.31;5088019;28;19923;-83
2022/11/11 08:51:38;;;;;;;;;;;;;;;16.03;58.83;100944.50;5088442;28;19920;-82
2022/11/11 08:54:04;;;;;;;;;;;;;;;16.10;58.84;100940.81;5088426;28;19916;-84
2022/11/11 08:56:29;;;;;;;;;;;;;;;16.13;58.38;100943.44;5088017;28;19942;-84
2022/11/11 08:58:54;;;;;;;;;;;;;;;16.17;58.08;100944.25;5088324;28;20313;-83
2022/11/11 09:01:19;;;;;;;;;;;;;;;16.42;58.83;100945.56;5087152;28;20397;-83
2022/11/11 09:03:45;;;;;;;;;;;;;;;16.49;58.17;100940.97;5088035;28;19973;-84
2022/11/11 09:06:11;;;;;;;;;;;;;;;16.46;58.63;100939.22;5088059;28;19999;-84
2022/11/11 09:08:36;;;;;;;;;;;;;;;16.45;58.32;100941.94;5088171;28;19935;-83
2022/11/11 09:11:02;;;;;;;;;;;;;;;16.40;58.07;100935.81;5087924;28;20267;-84
2022/11/11 09:13:27;;;;;;;;;;;;;;;16.41;59.00;100922.47;5088102;28;19920;-83
2022/11/11 09:15:53;;;;;;;;;;;;;;;16.44;58.62;100934.88;5088254;28;19916;-83
2022/11/11 09:18:18;;;;;;;;;;;;;;;16.58;58.15;100939.94;5087568;28;19955;-84
2022/11/11 09:20:44;;;;;;;;;;;;;;;16.65;57.14;100937.09;5087757;28;19927;-83
2022/11/11 09:23:09;;;;;;;;;;;;;;;16.74;56.97;100936.00;5087754;28;19908;-84
2022/11/11 09:25:34;;;;;;;;;;;;;;;16.72;56.16;100932.53;5087588;28;20346;-84
2022/11/11 09:28:00;;;;;;;;;;;;;;;16.52;56.06;100937.38;5087386;28;20487;-84
2022/11/11 09:30:27;;;;;;;;;;;;;;;16.56;56.52;100944.38;5088289;28;19912;-84
2022/11/11 09:32:52;;;;;;;;;;;;;;;16.59;55.97;100947.88;5086750;28;20306;-83
2022/11/11 09:35:18;;;;;;;;;;;;;;;16.93;56.22;100936.56;5087505;28;19916;-84
2022/11/11 09:37:55;;;;;;;;;;;;;;;17.14;55.50;100940.53;5087212;28;19916;-83
2022/11/11 09:40:23;;;;;;;;;;;;;;;17.08;54.89;100945.13;5087382;28;19970;-83
2022/11/11 09:42:55;;;;;;;;;;;;;;;17.15;54.85;100944.09;5086324;28;20362;-84
2022/11/11 09:45:29;;;;;;;;;;;;;;;16.93;55.08;100933.91;5087015;28;19912;-81
2022/11/11 09:48:08;;;;;;;;;;;;;;;17.03;55.30;100926.56;5086741;28;19969;-83
2022/11/11 09:50:36;;;;;;;;;;;;;;;17.06;54.30;100934.50;5086780;28;19948;-84
2022/11/11 09:53:07;;;;;;;;;;;;;;;16.83;55.46;100918.97;5087181;28;19916;-83
2022/11/11 09:55:37;;;;;;;;;;;;;;;16.92;55.58;100929.47;5087102;28;20015;-84
2022/11/11 09:58:04;;;;;;;;;;;;;;;17.04;54.95;100925.66;5087130;28;19915;-84
2022/11/11 10:00:32;;;;;;;;;;;;;;;17.05;55.04;100924.72;5078711;28;20030;-84
2022/11/11 10:03:00;;;;;;;;;;;;;;;17.13;54.52;100920.13;5073944;28;19972;-84
2022/11/11 10:05:25;;;;;;;;;;;;;;;17.05;54.68;100923.88;5070356;28;19923;-82
2022/11/11 10:08:03;;;;;;;;;;;;;;;16.91;55.38;100919.69;5073651;28;19912;-83
2022/11/11 10:10:32;;;;;;;;;;;;;;;16.94;55.17;100924.97;5070963;28;20014;-84
2022/11/11 10:12:58;;;;;;;;;;;;;;;16.79;55.03;100922.59;5066200;28;19955;-84
2022/11/11 10:15:26;;;;;;;;;;;;;;;16.89;55.07;100923.34;5066030;28;19960;-83
2022/11/11 10:18:17;;;;;;;;;;;;;;;16.72;55.49;100921.84;5070546;28;19920;-81
2022/11/11 10:20:47;;;;;;;;;;;;;;;16.63;55.85;100925.59;5073564;28;20022;-85
2022/11/11 10:23:14;;;;;;;;;;;;;;;16.47;56.44;100922.34;5076884;28;19920;-83
2022/11/11 10:25:53;;;;;;;;;;;;;;;16.14;58.12;100926.53;5071815;28;20010;-83
2022/11/11 10:28:19;;;;;;;;;;;;;;;16.07;58.75;100927.56;5069308;28;19998;-83
2022/11/11 10:30:45;;;;;;;;;;;;;;;16.06;59.22;100928.47;5074776;28;19924;-83
2022/11/11 10:33:13;;;;;;;;;;;;;;;15.81;59.66;100930.69;5072082;28;19927;-85
2022/11/11 10:35:40;;;;;;;;;;;;;;;15.61;61.11;100933.66;5079594;28;19953;-85
2022/11/11 10:38:23;;;;;;;;;;;;;;;15.50;61.69;100937.34;5071433;28;19920;-85
2022/11/11 10:40:52;;;;;;;;;;;;;;;15.54;61.69;100939.06;5070940;28;19931;-84
2022/11/11 10:43:25;;;;;;;;;;;;;;;15.38;62.41;100937.53;5079671;28;20697;-84
2022/11/11 10:46:00;;;;;;;;;;;;;;;15.47;62.46;100944.50;5074769;28;19951;-82
2022/11/11 10:48:40;;;;;;;;;;;;;;;15.47;62.16;100944.50;5078862;28;20378;-83
2022/11/11 10:51:06;;;;;;;;;;;;;;;15.51;61.53;100939.13;5084708;28;19919;-83
2022/11/11 10:53:31;;;;;;;;;;;;;;;15.47;61.98;100944.50;5087842;28;20010;-84
2022/11/11 10:56:08;;;;;;;;;;;;;;;15.35;61.24;100946.47;5087679;28;20010;-83
2022/11/11 10:58:36;;;;;;;;;;;;;;;15.44;60.85;100949.88;5089364;28;19918;-84
2022/11/11 11:01:04;;;;;;;;;;;;;;;15.47;60.92;100945.38;5089917;28;19956;-83
2022/11/11 11:03:31;;;;;;;;;;;;;;;15.53;60.28;100941.75;5088919;28;19916;-84
2022/11/11 11:06:01;;;;;;;;;;;;;;;15.50;60.63;100949.78;5089228;28;19916;-85
2022/11/11 11:08:29;;;;;;;;;;;;;;;15.65;59.96;100946.88;5090242;28;20360;-85
2022/11/11 11:10:59;;;;;;;;;;;;;;;15.61;60.71;100942.50;5089634;28;20308;-83
2022/11/11 11:13:30;;;;;;;;;;;;;;;15.51;60.99;100936.44;5089798;28;19923;-83
2022/11/11 11:16:01;;;;;;;;;;;;;;;15.44;61.22;100945.41;5089750;28;19918;-83
2022/11/11 11:18:27;;;;;;;;;;;;;;;15.40;62.39;100946.38;5089531;28;19916;-84
2022/11/11 11:20:55;;;;;;;;;;;;;;;15.46;61.99;100945.38;5089463;28;19985;-84
2022/11/11 11:23:37;;;;;;;;;;;;;;;15.27;63.59;100947.47;5089196;28;19969;-85
2022/11/11 11:26:04;;;;;;;;;;;;;;;15.38;64.65;100948.16;5089642;28;19912;-86
2022/11/11 11:28:29;;;;;;;;;;;;;;;15.17;66.58;100944.94;5089326;28;19931;-83
2022/11/11 11:31:02;;;;;;;;;;;;;;;14.90;67.21;100942.66;5089117;28;19915;-82
2022/11/11 11:33:48;;;;;;;;;;;;;;;14.84;68.42;100954.22;5089597;28;19920;-82
2022/11/11 11:36:15;;;;;;;;;;;;;;;14.71;69.02;100948.19;5089516;28;19912;-85
2022/11/11 11:38:41;;;;;;;;;;;;;;;14.70;71.25;100943.75;5089070;28;19915;-84
2022/11/11 11:41:07;;;;;;;;;;;;;;;15.03;69.97;100938.94;5088807;28;19922;-84
2022/11/11 11:43:33;;;;;;;;;;;;;;;14.83;69.81;100937.41;5089040;28;19916;-84
2022/11/11 11:46:00;;;;;;;;;;;;;;;14.97;69.29;100937.22;5087760;28;19919;-85
2022/11/11 11:48:31;;;;;;;;;;;;;;;14.79;69.22;100943.66;5088782;28;19935;-84
2022/11/11 11:51:08;;;;;;;;;;;;;;;14.73;68.68;100938.41;5089179;28;19938;-86
2022/11/11 11:53:40;;;;;;;;;;;;;;;14.84;68.66;100928.56;5089187;28;20314;-86
2022/11/11 11:56:19;;;;;;;;;;;;;;;14.86;67.59;100925.88;5087911;28;19919;-87
2022/11/11 11:58:53;;;;;;;;;;;;;;;15.06;67.29;100930.03;5088578;28;19916;-85
2022/11/11 12:01:18;;;;;;;;;;;;;;;14.98;67.87;100927.47;5089345;28;19920;-84
2022/11/11 12:04:02;;;;;;;;;;;;;;;15.11;66.22;100926.41;5088356;28;19949;-84
2022/11/11 12:06:27;;;;;;;;;;;;;;;15.06;66.55;100927.38;5089015;28;19920;-85
2022/11/11 12:08:55;;;;;;;;;;;;;;;14.98;65.92;100924.81;5087318;28;20309;-87
2022/11/11 12:11:26;;;;;;;;;;;;;;;15.11;65.47;100923.75;5088725;28;20483;-83
2022/11/11 12:14:04;;;;;;;;;;;;;;;15.07;65.17;100924.69;5088213;28;19916;-85
2022/11/11 12:16:35;;;;;;;;;;;;;;;15.21;65.40;100919.19;5088714;28;19969;-85
2022/11/11 12:19:12;;;;;;;;;;;;;;;15.32;64.55;100913.69;5088491;28;19922;-86
2022/11/11 12:21:53;;;;;;;;;;;;;;;15.28;63.30;100918.19;5088175;28;19912;-85
2022/11/11 12:24:41;;;;;;;;;;;;;;;15.32;64.29;100917.25;5088557;28;19920;-85
2022/11/11 12:27:25;;;;;;;;;;;;;;;15.42;64.02;100911.81;5087846;28;19920;-85
2022/11/11 12:30:00;;;;;;;;;;;;;;;15.56;63.61;100907.13;5087942;28;19915;-86
2022/11/11 12:32:35;;;;;;;;;;;;;;;15.63;62.90;100905.22;5088125;28;19912;-86
2022/11/11 12:35:15;;;;;;;;;;;;;;;15.57;62.05;100907.09;5088060;28;19912;-85
2022/11/11 12:37:48;;;;;;;;;;;;;;;15.63;62.91;100903.47;5088193;28;20069;-83
2022/11/11 12:40:14;;;;;;;;;;;;;;;15.52;62.96;100916.03;5089245;28;19912;-84
2022/11/11 12:42:54;;;;;;;;;;;;;;;15.35;63.18;100913.66;5088613;28;19915;-83
2022/11/11 12:45:25;;;;;;;;;;;;;;;15.43;63.92;100910.88;5086652;28;20328;-83
2022/11/11 12:47:53;;;;;;;;;;;;;;;15.37;64.18;100907.41;5087510;28;20359;-85
2022/11/11 12:50:40;;;;;;;;;;;;;;;15.25;64.04;100907.59;5087495;28;20313;-84
2022/11/11 12:53:14;;;;;;;;;;;;;;;15.33;63.39;100903.03;5088380;28;19916;-84
2022/11/11 12:55:58;;;;;;;;;;;;;;;15.38;63.68;100902.97;5087564;28;19908;-84
2022/11/11 12:58:46;;;;;;;;;;;;;;;15.25;63.38;100902.28;5087697;28;20396;-84
2022/11/11 13:01:29;;;;;;;;;;;;;;;15.20;64.38;100906.81;5082014;28;19911;-82
2022/11/11 13:04:07;;;;;;;;;;;;;;;15.25;63.31;100912.91;5087638;28;19916;-83
2022/11/11 13:06:42;;;;;;;;;;;;;;;15.14;63.26;100904.25;5087573;28;19958;-83
2022/11/11 13:09:27;;;;;;;;;;;;;;;15.25;63.26;100906.75;5087571;28;19969;-84
2022/11/11 13:11:52;;;;;;;;;;;;;;;15.04;63.77;100900.81;5087359;28;19916;-84
2022/11/11 13:14:36;;;;;;;;;;;;;;;15.17;63.24;100902.41;5087367;28;19912;-84
2022/11/11 13:17:05;;;;;;;;;;;;;;;15.09;63.03;100906.06;5087539;28;19916;-82
2022/11/11 13:19:35;;;;;;;;;;;;;;;15.11;62.63;100906.94;5087589;28;19946;-83
2022/11/11 13:22:13;;;;;;;;;;;;;;;15.20;62.65;100915.66;5087415;28;19923;-84
2022/11/11 13:24:38;;;;;;;;;;;;;;;15.19;62.87;100916.53;5086879;28;20010;-83
2022/11/11 13:27:06;;;;;;;;;;;;;;;15.26;62.46;100922.66;5087305;28;19928;-83
2022/11/11 13:29:50;;;;;;;;;;;;;;;15.25;62.48;100922.69;5086654;28;20703;-84
2022/11/11 13:32:19;;;;;;;;;;;;;;;15.12;63.41;100925.53;5087365;28;19922;-84
2022/11/11 13:34:45;;;;;;;;;;;;;;;15.09;63.06;100922.00;5087114;28;19912;-83
2022/11/11 13:37:32;;;;;;;;;;;;;;;15.13;63.42;100921.94;5087319;28;20286;-82
2022/11/11 13:40:05;;;;;;;;;;;;;;;15.19;63.02;100926.31;5086770;28;19947;-83
2022/11/11 13:42:41;;;;;;;;;;;;;;;15.15;63.44;100928.13;5086958;28;19916;-84
2022/11/11 13:45:07;;;;;;;;;;;;;;;15.25;62.73;100930.66;5087542;28;19916;-84
2022/11/11 13:47:35;;;;;;;;;;;;;;;15.28;62.31;100931.50;5086758;28;20313;-83
2022/11/11 13:50:04;;;;;;;;;;;;;;;15.26;62.49;100932.41;5086793;28;19912;-84
2022/11/11 13:52:34;;;;;;;;;;;;;;;15.37;62.07;100928.69;5086186;28;19959;-84
2022/11/11 13:55:05;;;;;;;;;;;;;;;15.43;62.35;100922.41;5087297;28;20443;-83
2022/11/11 13:57:31;;;;;;;;;;;;;;;15.29;61.82;100935.91;5086921;28;20026;-84
2022/11/11 14:00:01;;;;;;;;;;;;;;;15.44;62.14;100936.56;5086960;28;19947;-84
2022/11/11 14:02:34;;;;;;;;;;;;;;;15.37;62.34;100934.00;5087485;28;19943;-84
2022/11/11 14:04:59;;;;;;;;;;;;;;;15.39;62.45;100941.97;5087454;28;19912;-84